sensor_id;sensor_type;location;lat;lon;timestamp;P1;durP1;ratioP1;P2;durP2;ratioP2
75593;SDS011;64176;49.156;7.810;2022-11-21T00:00:07;5.65;;;2.25;;
75593;SDS011;64176;49.156;7.810;2022-11-21T00:02:51;7.90;;;1.58;;
75593;SDS011;64176;49.156;7.810;2022-11-21T00:05:45;3.20;;;1.02;;
75593;SDS011;64176;49.156;7.810;2022-11-21T00:08:30;2.92;;;0.77;;
75593;SDS011;64176;49.156;7.810;2022-11-21T00:11:17;2.63;;;1.20;;
75593;SDS011;64176;49.156;7.810;2022-11-21T00:14:01;4.35;;;1.10;;
75593;SDS011;64176;49.156;7.810;2022-11-21T00:16:50;3.20;;;1.95;;
75593;SDS011;64176;49.156;7.810;2022-11-21T00:19:37;3.42;;;1.52;;
75593;SDS011;64176;49.156;7.810;2022-11-21T00:22:21;3.97;;;1.58;;
75593;SDS011;64176;49.156;7.810;2022-11-21T00:25:07;2.67;;;1.25;;
75593;SDS011;64176;49.156;7.810;2022-11-21T00:27:52;4.10;;;1.63;;
75593;SDS011;64176;49.156;7.810;2022-11-21T00:30:38;2.75;;;1.33;;
75593;SDS011;64176;49.156;7.810;2022-11-21T00:33:22;4.93;;;1.27;;
75593;SDS011;64176;49.156;7.810;2022-11-21T00:36:11;2.58;;;1.35;;
75593;SDS011;64176;49.156;7.810;2022-11-21T00:38:58;3.70;;;1.70;;
75593;SDS011;64176;49.156;7.810;2022-11-21T00:41:44;4.00;;;1.23;;
75593;SDS011;64176;49.156;7.810;2022-11-21T00:44:29;1.70;;;0.90;;
75593;SDS011;64176;49.156;7.810;2022-11-21T00:47:15;2.58;;;1.10;;
75593;SDS011;64176;49.156;7.810;2022-11-21T00:50:01;5.82;;;0.95;;
75593;SDS011;64176;49.156;7.810;2022-11-21T00:52:45;2.58;;;1.10;;
75593;SDS011;64176;49.156;7.810;2022-11-21T00:55:29;3.53;;;1.10;;
75593;SDS011;64176;49.156;7.810;2022-11-21T00:58:13;1.15;;;1.02;;
75593;SDS011;64176;49.156;7.810;2022-11-21T01:01:07;2.90;;;1.05;;
75593;SDS011;64176;49.156;7.810;2022-11-21T01:03:52;3.30;;;1.13;;
75593;SDS011;64176;49.156;7.810;2022-11-21T01:06:37;2.00;;;1.05;;
75593;SDS011;64176;49.156;7.810;2022-11-21T01:09:21;2.67;;;1.30;;
75593;SDS011;64176;49.156;7.810;2022-11-21T01:12:07;5.13;;;1.40;;
75593;SDS011;64176;49.156;7.810;2022-11-21T01:14:54;3.75;;;0.88;;
75593;SDS011;64176;49.156;7.810;2022-11-21T01:17:37;2.45;;;1.00;;
75593;SDS011;64176;49.156;7.810;2022-11-21T01:20:21;2.67;;;0.73;;
75593;SDS011;64176;49.156;7.810;2022-11-21T01:23:05;1.98;;;0.93;;
75593;SDS011;64176;49.156;7.810;2022-11-21T01:25:49;4.35;;;1.58;;
75593;SDS011;64176;49.156;7.810;2022-11-21T01:31:24;5.40;;;1.05;;
75593;SDS011;64176;49.156;7.810;2022-11-21T01:34:12;1.88;;;1.10;;
75593;SDS011;64176;49.156;7.810;2022-11-21T01:37:02;4.63;;;1.10;;
75593;SDS011;64176;49.156;7.810;2022-11-21T01:39:48;1.70;;;0.80;;
75593;SDS011;64176;49.156;7.810;2022-11-21T01:42:52;1.55;;;0.80;;
75593;SDS011;64176;49.156;7.810;2022-11-21T01:48:39;1.08;;;0.60;;
75593;SDS011;64176;49.156;7.810;2022-11-21T01:51:47;3.45;;;1.13;;
75593;SDS011;64176;49.156;7.810;2022-11-21T01:57:40;2.05;;;0.77;;
75593;SDS011;64176;49.156;7.810;2022-11-21T02:00:27;1.70;;;0.90;;
75593;SDS011;64176;49.156;7.810;2022-11-21T02:03:21;2.90;;;1.00;;
75593;SDS011;64176;49.156;7.810;2022-11-21T02:06:10;1.25;;;0.75;;
75593;SDS011;64176;49.156;7.810;2022-11-21T02:08:55;2.50;;;0.63;;
75593;SDS011;64176;49.156;7.810;2022-11-21T02:11:44;4.78;;;0.65;;
75593;SDS011;64176;49.156;7.810;2022-11-21T02:14:36;0.80;;;0.80;;
75593;SDS011;64176;49.156;7.810;2022-11-21T02:17:22;1.55;;;0.80;;
75593;SDS011;64176;49.156;7.810;2022-11-21T02:20:07;3.35;;;0.60;;
75593;SDS011;64176;49.156;7.810;2022-11-21T02:23:06;2.05;;;0.75;;
75593;SDS011;64176;49.156;7.810;2022-11-21T02:25:52;1.23;;;0.77;;
75593;SDS011;64176;49.156;7.810;2022-11-21T02:28:40;1.25;;;0.80;;
75593;SDS011;64176;49.156;7.810;2022-11-21T02:31:25;2.45;;;0.80;;
75593;SDS011;64176;49.156;7.810;2022-11-21T02:34:09;2.00;;;0.88;;
75593;SDS011;64176;49.156;7.810;2022-11-21T02:36:52;1.85;;;0.68;;
75593;SDS011;64176;49.156;7.810;2022-11-21T02:39:39;1.67;;;0.80;;
75593;SDS011;64176;49.156;7.810;2022-11-21T02:42:37;1.23;;;0.65;;
75593;SDS011;64176;49.156;7.810;2022-11-21T02:45:33;4.47;;;0.82;;
75593;SDS011;64176;49.156;7.810;2022-11-21T02:48:20;2.13;;;0.90;;
75593;SDS011;64176;49.156;7.810;2022-11-21T02:51:07;0.68;;;0.50;;
75593;SDS011;64176;49.156;7.810;2022-11-21T02:53:53;2.50;;;0.85;;
75593;SDS011;64176;49.156;7.810;2022-11-21T02:56:37;1.90;;;0.63;;
75593;SDS011;64176;49.156;7.810;2022-11-21T02:59:21;2.63;;;0.90;;
75593;SDS011;64176;49.156;7.810;2022-11-21T03:02:05;0.75;;;0.60;;
75593;SDS011;64176;49.156;7.810;2022-11-21T03:04:51;1.50;;;0.80;;
75593;SDS011;64176;49.156;7.810;2022-11-21T03:07:35;1.85;;;0.85;;
75593;SDS011;64176;49.156;7.810;2022-11-21T03:10:20;2.78;;;1.10;;
75593;SDS011;64176;49.156;7.810;2022-11-21T03:13:06;2.80;;;0.95;;
75593;SDS011;64176;49.156;7.810;2022-11-21T03:15:50;3.03;;;0.80;;
75593;SDS011;64176;49.156;7.810;2022-11-21T03:18:35;6.65;;;3.05;;
75593;SDS011;64176;49.156;7.810;2022-11-21T03:21:19;2.33;;;0.60;;
75593;SDS011;64176;49.156;7.810;2022-11-21T03:24:05;1.92;;;0.80;;
75593;SDS011;64176;49.156;7.810;2022-11-21T03:26:50;3.15;;;0.80;;
75593;SDS011;64176;49.156;7.810;2022-11-21T03:29:34;4.28;;;1.02;;
75593;SDS011;64176;49.156;7.810;2022-11-21T03:32:20;3.72;;;0.90;;
75593;SDS011;64176;49.156;7.810;2022-11-21T03:35:04;2.10;;;0.90;;
75593;SDS011;64176;49.156;7.810;2022-11-21T03:37:51;4.10;;;0.98;;
75593;SDS011;64176;49.156;7.810;2022-11-21T03:40:38;1.92;;;0.80;;
75593;SDS011;64176;49.156;7.810;2022-11-21T03:43:25;1.20;;;0.70;;
75593;SDS011;64176;49.156;7.810;2022-11-21T03:46:09;4.22;;;1.20;;
75593;SDS011;64176;49.156;7.810;2022-11-21T03:48:53;2.25;;;1.00;;
75593;SDS011;64176;49.156;7.810;2022-11-21T03:51:39;1.23;;;0.90;;
75593;SDS011;64176;49.156;7.810;2022-11-21T03:54:23;2.25;;;1.13;;
75593;SDS011;64176;49.156;7.810;2022-11-21T03:57:07;2.13;;;0.80;;
75593;SDS011;64176;49.156;7.810;2022-11-21T03:59:51;2.92;;;1.30;;
75593;SDS011;64176;49.156;7.810;2022-11-21T04:02:35;2.45;;;1.13;;
75593;SDS011;64176;49.156;7.810;2022-11-21T04:05:19;2.78;;;1.48;;
75593;SDS011;64176;49.156;7.810;2022-11-21T04:08:02;4.45;;;1.65;;
75593;SDS011;64176;49.156;7.810;2022-11-21T04:10:50;4.63;;;1.27;;
75593;SDS011;64176;49.156;7.810;2022-11-21T04:13:36;4.93;;;1.25;;
75593;SDS011;64176;49.156;7.810;2022-11-21T04:16:20;5.60;;;1.20;;
75593;SDS011;64176;49.156;7.810;2022-11-21T04:19:04;2.72;;;1.00;;
75593;SDS011;64176;49.156;7.810;2022-11-21T04:21:48;5.30;;;1.23;;
75593;SDS011;64176;49.156;7.810;2022-11-21T04:24:34;4.97;;;1.70;;
75593;SDS011;64176;49.156;7.810;2022-11-21T04:27:21;2.83;;;1.02;;
75593;SDS011;64176;49.156;7.810;2022-11-21T04:30:05;3.88;;;1.13;;
75593;SDS011;64176;49.156;7.810;2022-11-21T04:32:50;3.00;;;1.67;;
75593;SDS011;64176;49.156;7.810;2022-11-21T04:35:34;3.42;;;1.40;;
75593;SDS011;64176;49.156;7.810;2022-11-21T04:38:18;4.22;;;1.50;;
75593;SDS011;64176;49.156;7.810;2022-11-21T04:41:02;4.93;;;1.90;;
75593;SDS011;64176;49.156;7.810;2022-11-21T04:43:47;7.50;;;2.50;;
75593;SDS011;64176;49.156;7.810;2022-11-21T04:46:31;3.85;;;1.70;;
75593;SDS011;64176;49.156;7.810;2022-11-21T04:49:15;4.78;;;1.70;;
75593;SDS011;64176;49.156;7.810;2022-11-21T04:51:59;5.20;;;1.45;;
75593;SDS011;64176;49.156;7.810;2022-11-21T04:54:45;2.72;;;1.90;;
75593;SDS011;64176;49.156;7.810;2022-11-21T04:57:33;6.25;;;2.00;;
75593;SDS011;64176;49.156;7.810;2022-11-21T05:00:17;5.78;;;3.28;;
75593;SDS011;64176;49.156;7.810;2022-11-21T05:03:05;6.28;;;1.88;;
75593;SDS011;64176;49.156;7.810;2022-11-21T05:05:49;5.50;;;1.92;;
75593;SDS011;64176;49.156;7.810;2022-11-21T05:08:34;20.35;;;9.38;;
75593;SDS011;64176;49.156;7.810;2022-11-21T05:11:18;9.48;;;3.40;;
75593;SDS011;64176;49.156;7.810;2022-11-21T05:14:21;7.75;;;2.78;;
75593;SDS011;64176;49.156;7.810;2022-11-21T05:17:04;4.57;;;1.70;;
75593;SDS011;64176;49.156;7.810;2022-11-21T05:19:48;3.50;;;1.50;;
75593;SDS011;64176;49.156;7.810;2022-11-21T05:22:35;3.30;;;1.65;;
75593;SDS011;64176;49.156;7.810;2022-11-21T05:25:19;6.03;;;1.73;;
75593;SDS011;64176;49.156;7.810;2022-11-21T05:28:05;5.13;;;1.70;;
75593;SDS011;64176;49.156;7.810;2022-11-21T05:30:49;4.10;;;1.35;;
75593;SDS011;64176;49.156;7.810;2022-11-21T05:33:36;6.68;;;1.50;;
75593;SDS011;64176;49.156;7.810;2022-11-21T05:36:25;4.75;;;1.83;;
75593;SDS011;64176;49.156;7.810;2022-11-21T05:39:09;5.38;;;2.47;;
75593;SDS011;64176;49.156;7.810;2022-11-21T05:41:55;3.83;;;1.60;;
75593;SDS011;64176;49.156;7.810;2022-11-21T05:44:39;3.97;;;1.83;;
75593;SDS011;64176;49.156;7.810;2022-11-21T05:47:23;9.27;;;3.95;;
75593;SDS011;64176;49.156;7.810;2022-11-21T05:50:07;3.40;;;1.65;;
75593;SDS011;64176;49.156;7.810;2022-11-21T05:52:52;12.13;;;3.03;;
75593;SDS011;64176;49.156;7.810;2022-11-21T05:55:38;5.22;;;2.22;;
75593;SDS011;64176;49.156;7.810;2022-11-21T05:58:25;6.57;;;1.83;;
75593;SDS011;64176;49.156;7.810;2022-11-21T06:01:17;6.53;;;1.50;;
75593;SDS011;64176;49.156;7.810;2022-11-21T06:04:21;6.57;;;2.13;;
75593;SDS011;64176;49.156;7.810;2022-11-21T06:07:10;3.05;;;1.60;;
75593;SDS011;64176;49.156;7.810;2022-11-21T06:09:54;5.72;;;1.88;;
75593;SDS011;64176;49.156;7.810;2022-11-21T06:12:43;7.32;;;2.00;;
75593;SDS011;64176;49.156;7.810;2022-11-21T06:15:27;5.63;;;1.38;;
75593;SDS011;64176;49.156;7.810;2022-11-21T06:18:11;7.70;;;1.20;;
75593;SDS011;64176;49.156;7.810;2022-11-21T06:21:02;7.78;;;1.90;;
75593;SDS011;64176;49.156;7.810;2022-11-21T06:23:57;4.95;;;2.88;;
75593;SDS011;64176;49.156;7.810;2022-11-21T06:26:46;6.22;;;1.83;;
75593;SDS011;64176;49.156;7.810;2022-11-21T06:29:30;6.60;;;2.50;;
75593;SDS011;64176;49.156;7.810;2022-11-21T06:32:14;5.05;;;1.50;;
75593;SDS011;64176;49.156;7.810;2022-11-21T06:34:58;1.95;;;1.48;;
75593;SDS011;64176;49.156;7.810;2022-11-21T06:37:44;4.47;;;1.40;;
75593;SDS011;64176;49.156;7.810;2022-11-21T06:40:28;4.40;;;1.20;;
75593;SDS011;64176;49.156;7.810;2022-11-21T06:43:12;8.35;;;3.90;;
75593;SDS011;64176;49.156;7.810;2022-11-21T06:45:56;9.43;;;4.78;;
75593;SDS011;64176;49.156;7.810;2022-11-21T06:48:42;7.03;;;1.90;;
75593;SDS011;64176;49.156;7.810;2022-11-21T06:51:29;7.68;;;4.55;;
75593;SDS011;64176;49.156;7.810;2022-11-21T06:54:15;4.47;;;1.67;;
75593;SDS011;64176;49.156;7.810;2022-11-21T06:57:01;4.88;;;1.75;;
75593;SDS011;64176;49.156;7.810;2022-11-21T06:59:48;7.00;;;1.98;;
75593;SDS011;64176;49.156;7.810;2022-11-21T07:02:34;4.57;;;2.85;;
75593;SDS011;64176;49.156;7.810;2022-11-21T07:05:18;11.80;;;3.88;;
75593;SDS011;64176;49.156;7.810;2022-11-21T07:08:05;11.57;;;5.85;;
75593;SDS011;64176;49.156;7.810;2022-11-21T07:10:48;4.15;;;1.50;;
75593;SDS011;64176;49.156;7.810;2022-11-21T07:13:35;16.38;;;2.30;;
75593;SDS011;64176;49.156;7.810;2022-11-21T07:16:19;4.57;;;1.60;;
75593;SDS011;64176;49.156;7.810;2022-11-21T07:19:03;4.18;;;2.15;;
75593;SDS011;64176;49.156;7.810;2022-11-21T07:21:48;8.38;;;2.60;;
75593;SDS011;64176;49.156;7.810;2022-11-21T07:24:32;9.18;;;2.55;;
75593;SDS011;64176;49.156;7.810;2022-11-21T07:27:16;7.70;;;4.72;;
75593;SDS011;64176;49.156;7.810;2022-11-21T07:30:05;5.00;;;2.97;;
75593;SDS011;64176;49.156;7.810;2022-11-21T07:32:59;5.88;;;1.73;;
75593;SDS011;64176;49.156;7.810;2022-11-21T07:35:48;7.63;;;1.80;;
75593;SDS011;64176;49.156;7.810;2022-11-21T07:38:34;10.18;;;2.05;;
75593;SDS011;64176;49.156;7.810;2022-11-21T07:41:18;5.38;;;2.42;;
75593;SDS011;64176;49.156;7.810;2022-11-21T07:44:05;5.32;;;1.75;;
75593;SDS011;64176;49.156;7.810;2022-11-21T07:46:54;7.45;;;1.83;;
75593;SDS011;64176;49.156;7.810;2022-11-21T07:49:38;2.97;;;1.30;;
75593;SDS011;64176;49.156;7.810;2022-11-21T07:52:22;4.43;;;1.50;;
75593;SDS011;64176;49.156;7.810;2022-11-21T07:55:08;6.85;;;2.63;;
75593;SDS011;64176;49.156;7.810;2022-11-21T07:58:02;5.65;;;2.38;;
75593;SDS011;64176;49.156;7.810;2022-11-21T08:00:49;7.70;;;1.63;;
75593;SDS011;64176;49.156;7.810;2022-11-21T08:03:33;5.10;;;1.70;;
75593;SDS011;64176;49.156;7.810;2022-11-21T08:06:16;11.63;;;1.70;;
75593;SDS011;64176;49.156;7.810;2022-11-21T08:09:03;7.55;;;2.35;;
75593;SDS011;64176;49.156;7.810;2022-11-21T08:11:47;5.07;;;2.55;;
75593;SDS011;64176;49.156;7.810;2022-11-21T08:14:31;4.95;;;1.38;;
75593;SDS011;64176;49.156;7.810;2022-11-21T08:20:02;4.03;;;1.52;;
75593;SDS011;64176;49.156;7.810;2022-11-21T08:22:47;4.63;;;1.70;;
75593;SDS011;64176;49.156;7.810;2022-11-21T08:25:36;6.05;;;1.77;;
75593;SDS011;64176;49.156;7.810;2022-11-21T08:28:23;3.35;;;1.42;;
75593;SDS011;64176;49.156;7.810;2022-11-21T08:31:10;6.28;;;1.85;;
75593;SDS011;64176;49.156;7.810;2022-11-21T08:33:59;4.82;;;2.08;;
75593;SDS011;64176;49.156;7.810;2022-11-21T08:36:43;6.50;;;2.22;;
75593;SDS011;64176;49.156;7.810;2022-11-21T08:39:27;4.00;;;1.63;;
75593;SDS011;64176;49.156;7.810;2022-11-21T08:42:13;3.95;;;1.20;;
75593;SDS011;64176;49.156;7.810;2022-11-21T08:44:57;5.70;;;1.40;;
75593;SDS011;64176;49.156;7.810;2022-11-21T08:47:41;5.95;;;1.50;;
75593;SDS011;64176;49.156;7.810;2022-11-21T08:50:25;6.60;;;1.95;;
75593;SDS011;64176;49.156;7.810;2022-11-21T08:53:10;6.60;;;1.65;;
75593;SDS011;64176;49.156;7.810;2022-11-21T08:55:57;6.53;;;2.15;;
75593;SDS011;64176;49.156;7.810;2022-11-21T08:58:41;4.78;;;1.90;;
75593;SDS011;64176;49.156;7.810;2022-11-21T09:01:27;8.25;;;1.90;;
75593;SDS011;64176;49.156;7.810;2022-11-21T09:04:14;6.22;;;1.60;;
75593;SDS011;64176;49.156;7.810;2022-11-21T09:06:57;7.07;;;1.88;;
75593;SDS011;64176;49.156;7.810;2022-11-21T09:09:44;6.90;;;2.40;;
75593;SDS011;64176;49.156;7.810;2022-11-21T09:12:31;5.85;;;1.98;;
75593;SDS011;64176;49.156;7.810;2022-11-21T09:15:15;9.30;;;1.67;;
75593;SDS011;64176;49.156;7.810;2022-11-21T09:18:18;6.60;;;1.67;;
75593;SDS011;64176;49.156;7.810;2022-11-21T09:21:02;10.98;;;3.10;;
75593;SDS011;64176;49.156;7.810;2022-11-21T09:23:48;6.53;;;1.80;;
75593;SDS011;64176;49.156;7.810;2022-11-21T09:26:35;8.43;;;2.75;;
75593;SDS011;64176;49.156;7.810;2022-11-21T09:29:19;7.32;;;3.45;;
75593;SDS011;64176;49.156;7.810;2022-11-21T09:32:03;8.57;;;2.90;;
75593;SDS011;64176;49.156;7.810;2022-11-21T09:34:48;6.65;;;1.98;;
75593;SDS011;64176;49.156;7.810;2022-11-21T09:37:37;10.85;;;2.97;;
75593;SDS011;64176;49.156;7.810;2022-11-21T09:40:25;17.55;;;5.50;;
75593;SDS011;64176;49.156;7.810;2022-11-21T09:46:24;7.25;;;1.98;;
75593;SDS011;64176;49.156;7.810;2022-11-21T09:49:21;6.15;;;1.60;;
75593;SDS011;64176;49.156;7.810;2022-11-21T09:52:08;5.32;;;2.22;;
75593;SDS011;64176;49.156;7.810;2022-11-21T09:54:59;5.03;;;1.85;;
75593;SDS011;64176;49.156;7.810;2022-11-21T09:57:50;7.45;;;2.13;;
75593;SDS011;64176;49.156;7.810;2022-11-21T10:00:36;8.18;;;3.47;;
75593;SDS011;64176;49.156;7.810;2022-11-21T10:03:28;5.20;;;1.65;;
75593;SDS011;64176;49.156;7.810;2022-11-21T10:06:18;10.38;;;3.22;;
75593;SDS011;64176;49.156;7.810;2022-11-21T10:09:33;7.95;;;2.10;;
75593;SDS011;64176;49.156;7.810;2022-11-21T10:15:28;10.38;;;2.45;;
75593;SDS011;64176;49.156;7.810;2022-11-21T10:21:54;6.57;;;1.92;;
75593;SDS011;64176;49.156;7.810;2022-11-21T10:25:11;9.25;;;2.42;;
75593;SDS011;64176;49.156;7.810;2022-11-21T10:28:39;6.35;;;2.22;;
75593;SDS011;64176;49.156;7.810;2022-11-21T10:31:28;4.40;;;2.60;;
75593;SDS011;64176;49.156;7.810;2022-11-21T10:34:19;5.35;;;2.15;;
75593;SDS011;64176;49.156;7.810;2022-11-21T10:37:11;6.03;;;1.63;;
75593;SDS011;64176;49.156;7.810;2022-11-21T10:40:13;11.75;;;1.80;;
75593;SDS011;64176;49.156;7.810;2022-11-21T10:46:17;13.77;;;1.67;;
75593;SDS011;64176;49.156;7.810;2022-11-21T10:49:04;11.73;;;3.00;;
75593;SDS011;64176;49.156;7.810;2022-11-21T10:52:06;7.28;;;1.67;;
75593;SDS011;64176;49.156;7.810;2022-11-21T10:57:49;11.52;;;1.80;;
75593;SDS011;64176;49.156;7.810;2022-11-21T11:00:34;5.82;;;2.00;;
75593;SDS011;64176;49.156;7.810;2022-11-21T11:03:20;5.88;;;2.03;;
75593;SDS011;64176;49.156;7.810;2022-11-21T11:06:09;4.57;;;1.58;;
75593;SDS011;64176;49.156;7.810;2022-11-21T11:08:58;9.18;;;1.90;;
75593;SDS011;64176;49.156;7.810;2022-11-21T11:11:42;9.88;;;3.67;;
75593;SDS011;64176;49.156;7.810;2022-11-21T11:14:31;8.90;;;3.03;;
75593;SDS011;64176;49.156;7.810;2022-11-21T11:17:29;3.88;;;1.42;;
75593;SDS011;64176;49.156;7.810;2022-11-21T11:20:30;6.95;;;1.67;;
75593;SDS011;64176;49.156;7.810;2022-11-21T11:26:24;9.50;;;1.90;;
75593;SDS011;64176;49.156;7.810;2022-11-21T11:32:13;6.18;;;1.85;;
75593;SDS011;64176;49.156;7.810;2022-11-21T11:35:08;9.77;;;2.80;;
75593;SDS011;64176;49.156;7.810;2022-11-21T11:38:04;13.20;;;3.40;;
75593;SDS011;64176;49.156;7.810;2022-11-21T11:40:52;10.50;;;2.05;;
75593;SDS011;64176;49.156;7.810;2022-11-21T11:47:07;8.18;;;2.40;;
75593;SDS011;64176;49.156;7.810;2022-11-21T11:50:17;11.13;;;2.90;;
75593;SDS011;64176;49.156;7.810;2022-11-21T11:53:21;12.38;;;3.20;;
75593;SDS011;64176;49.156;7.810;2022-11-21T11:56:16;8.27;;;2.85;;
75593;SDS011;64176;49.156;7.810;2022-11-21T12:05:07;5.57;;;2.25;;
75593;SDS011;64176;49.156;7.810;2022-11-21T12:11:12;6.55;;;2.13;;
75593;SDS011;64176;49.156;7.810;2022-11-21T12:14:29;9.63;;;1.85;;
75593;SDS011;64176;49.156;7.810;2022-11-21T12:23:56;7.53;;;3.00;;
75593;SDS011;64176;49.156;7.810;2022-11-21T12:36:19;11.27;;;4.38;;
75593;SDS011;64176;49.156;7.810;2022-11-21T12:49:48;9.70;;;3.15;;
75593;SDS011;64176;49.156;7.810;2022-11-21T12:53:07;10.30;;;4.95;;
75593;SDS011;64176;49.156;7.810;2022-11-21T12:56:31;14.18;;;5.40;;
75593;SDS011;64176;49.156;7.810;2022-11-21T13:05:59;10.32;;;4.20;;
75593;SDS011;64176;49.156;7.810;2022-11-21T13:08:47;10.23;;;3.35;;
75593;SDS011;64176;49.156;7.810;2022-11-21T13:11:49;8.68;;;3.45;;
75593;SDS011;64176;49.156;7.810;2022-11-21T13:15:01;8.55;;;2.67;;
75593;SDS011;64176;49.156;7.810;2022-11-21T13:18:31;9.50;;;2.22;;
75593;SDS011;64176;49.156;7.810;2022-11-21T13:21:00;7.50;;;2.22;;
75593;SDS011;64176;49.156;7.810;2022-11-21T13:23:44;5.68;;;1.55;;
75593;SDS011;64176;49.156;7.810;2022-11-21T13:29:22;5.10;;;1.65;;
75593;SDS011;64176;49.156;7.810;2022-11-21T13:36:09;2.78;;;1.33;;
75593;SDS011;64176;49.156;7.810;2022-11-21T13:44:48;7.20;;;1.70;;
75593;SDS011;64176;49.156;7.810;2022-11-21T13:47:43;7.05;;;1.90;;
75593;SDS011;64176;49.156;7.810;2022-11-21T13:53:40;33.88;;;21.38;;
75593;SDS011;64176;49.156;7.810;2022-11-21T13:59:50;32.95;;;18.20;;
75593;SDS011;64176;49.156;7.810;2022-11-21T14:12:33;38.03;;;22.35;;
75593;SDS011;64176;49.156;7.810;2022-11-21T14:18:31;16.38;;;5.70;;
75593;SDS011;64176;49.156;7.810;2022-11-21T14:24:14;11.40;;;5.65;;
75593;SDS011;64176;49.156;7.810;2022-11-21T14:27:01;5.40;;;2.03;;
75593;SDS011;64176;49.156;7.810;2022-11-21T14:29:54;9.68;;;3.60;;
75593;SDS011;64176;49.156;7.810;2022-11-21T14:32:38;12.48;;;5.13;;
75593;SDS011;64176;49.156;7.810;2022-11-21T14:35:23;12.50;;;4.85;;
75593;SDS011;64176;49.156;7.810;2022-11-21T14:38:10;10.38;;;3.60;;
75593;SDS011;64176;49.156;7.810;2022-11-21T14:41:17;21.73;;;11.20;;
75593;SDS011;64176;49.156;7.810;2022-11-21T14:47:00;17.10;;;8.90;;
75593;SDS011;64176;49.156;7.810;2022-11-21T14:49:51;12.57;;;6.95;;
75593;SDS011;64176;49.156;7.810;2022-11-21T14:52:39;34.10;;;23.45;;
75593;SDS011;64176;49.156;7.810;2022-11-21T14:55:27;39.47;;;23.50;;
75593;SDS011;64176;49.156;7.810;2022-11-21T14:58:13;19.48;;;11.95;;
75593;SDS011;64176;49.156;7.810;2022-11-21T15:01:06;17.15;;;10.60;;
75593;SDS011;64176;49.156;7.810;2022-11-21T15:04:06;20.13;;;10.15;;
75593;SDS011;64176;49.156;7.810;2022-11-21T15:06:59;25.70;;;13.77;;
75593;SDS011;64176;49.156;7.810;2022-11-21T15:09:48;8.10;;;3.83;;
75593;SDS011;64176;49.156;7.810;2022-11-21T15:12:35;7.85;;;3.22;;
75593;SDS011;64176;49.156;7.810;2022-11-21T15:15:25;11.25;;;6.50;;
75593;SDS011;64176;49.156;7.810;2022-11-21T15:18:19;10.98;;;7.55;;
75593;SDS011;64176;49.156;7.810;2022-11-21T15:21:10;13.50;;;6.93;;
75593;SDS011;64176;49.156;7.810;2022-11-21T15:23:56;12.95;;;6.90;;
75593;SDS011;64176;49.156;7.810;2022-11-21T15:26:40;8.93;;;5.22;;
75593;SDS011;64176;49.156;7.810;2022-11-21T15:29:25;12.38;;;5.38;;
75593;SDS011;64176;49.156;7.810;2022-11-21T15:32:12;10.02;;;5.95;;
75593;SDS011;64176;49.156;7.810;2022-11-21T15:34:59;11.80;;;8.95;;
75593;SDS011;64176;49.156;7.810;2022-11-21T15:49:29;17.17;;;8.25;;
75593;SDS011;64176;49.156;7.810;2022-11-21T15:55:00;20.48;;;10.27;;
75593;SDS011;64176;49.156;7.810;2022-11-21T15:57:44;36.65;;;20.15;;
75593;SDS011;64176;49.156;7.810;2022-11-21T16:00:32;42.53;;;23.45;;
75593;SDS011;64176;49.156;7.810;2022-11-21T16:03:16;58.95;;;36.80;;
75593;SDS011;64176;49.156;7.810;2022-11-21T16:06:00;43.70;;;26.42;;
75593;SDS011;64176;49.156;7.810;2022-11-21T16:08:47;23.55;;;15.18;;
75593;SDS011;64176;49.156;7.810;2022-11-21T16:11:35;33.50;;;23.40;;
75593;SDS011;64176;49.156;7.810;2022-11-21T16:14:20;19.33;;;11.68;;
75593;SDS011;64176;49.156;7.810;2022-11-21T16:17:07;11.82;;;6.90;;
75593;SDS011;64176;49.156;7.810;2022-11-21T16:19:53;15.45;;;7.97;;
75593;SDS011;64176;49.156;7.810;2022-11-21T16:22:40;16.50;;;8.18;;
75593;SDS011;64176;49.156;7.810;2022-11-21T16:25:24;15.82;;;10.48;;
75593;SDS011;64176;49.156;7.810;2022-11-21T16:28:10;16.38;;;10.80;;
75593;SDS011;64176;49.156;7.810;2022-11-21T16:30:55;18.20;;;10.23;;
75593;SDS011;64176;49.156;7.810;2022-11-21T16:33:43;15.25;;;8.30;;
75593;SDS011;64176;49.156;7.810;2022-11-21T16:36:28;16.13;;;7.03;;
75593;SDS011;64176;49.156;7.810;2022-11-21T16:39:12;11.68;;;7.75;;
75593;SDS011;64176;49.156;7.810;2022-11-21T16:41:59;26.98;;;16.90;;
75593;SDS011;64176;49.156;7.810;2022-11-21T16:44:43;13.73;;;7.03;;
75593;SDS011;64176;49.156;7.810;2022-11-21T16:47:29;12.68;;;5.90;;
75593;SDS011;64176;49.156;7.810;2022-11-21T16:50:13;9.55;;;5.07;;
75593;SDS011;64176;49.156;7.810;2022-11-21T16:53:00;10.90;;;5.70;;
75593;SDS011;64176;49.156;7.810;2022-11-21T16:55:44;14.10;;;6.43;;
75593;SDS011;64176;49.156;7.810;2022-11-21T16:58:33;16.70;;;8.25;;
75593;SDS011;64176;49.156;7.810;2022-11-21T17:01:20;21.02;;;11.50;;
75593;SDS011;64176;49.156;7.810;2022-11-21T17:04:08;23.75;;;15.38;;
75593;SDS011;64176;49.156;7.810;2022-11-21T17:06:53;14.68;;;8.38;;
75593;SDS011;64176;49.156;7.810;2022-11-21T17:09:36;15.63;;;10.77;;
75593;SDS011;64176;49.156;7.810;2022-11-21T17:12:20;16.08;;;10.35;;
75593;SDS011;64176;49.156;7.810;2022-11-21T17:15:06;18.77;;;10.48;;
75593;SDS011;64176;49.156;7.810;2022-11-21T17:17:56;14.60;;;9.23;;
75593;SDS011;64176;49.156;7.810;2022-11-21T17:20:46;16.05;;;10.68;;
75593;SDS011;64176;49.156;7.810;2022-11-21T17:23:30;22.77;;;11.02;;
75593;SDS011;64176;49.156;7.810;2022-11-21T17:26:18;20.80;;;10.68;;
75593;SDS011;64176;49.156;7.810;2022-11-21T17:29:07;11.88;;;6.50;;
75593;SDS011;64176;49.156;7.810;2022-11-21T17:31:56;23.73;;;16.73;;
75593;SDS011;64176;49.156;7.810;2022-11-21T17:34:43;31.13;;;21.58;;
75593;SDS011;64176;49.156;7.810;2022-11-21T17:37:29;29.83;;;21.48;;
75593;SDS011;64176;49.156;7.810;2022-11-21T17:40:16;30.23;;;17.92;;
75593;SDS011;64176;49.156;7.810;2022-11-21T17:43:00;30.17;;;16.80;;
75593;SDS011;64176;49.156;7.810;2022-11-21T17:45:44;28.65;;;19.98;;
75593;SDS011;64176;49.156;7.810;2022-11-21T17:48:28;27.55;;;19.27;;
75593;SDS011;64176;49.156;7.810;2022-11-21T17:51:18;23.40;;;17.92;;
75593;SDS011;64176;49.156;7.810;2022-11-21T17:54:04;22.33;;;13.95;;
75593;SDS011;64176;49.156;7.810;2022-11-21T17:56:54;13.48;;;7.72;;
75593;SDS011;64176;49.156;7.810;2022-11-21T17:59:38;15.07;;;7.93;;
75593;SDS011;64176;49.156;7.810;2022-11-21T18:02:22;16.13;;;11.07;;
75593;SDS011;64176;49.156;7.810;2022-11-21T18:05:11;22.83;;;13.25;;
75593;SDS011;64176;49.156;7.810;2022-11-21T18:07:55;39.03;;;17.60;;
75593;SDS011;64176;49.156;7.810;2022-11-21T18:10:40;19.58;;;9.27;;
75593;SDS011;64176;49.156;7.810;2022-11-21T18:13:27;13.25;;;6.63;;
75593;SDS011;64176;49.156;7.810;2022-11-21T18:16:15;16.13;;;8.45;;
75593;SDS011;64176;49.156;7.810;2022-11-21T18:19:01;19.52;;;11.30;;
75593;SDS011;64176;49.156;7.810;2022-11-21T18:21:45;24.33;;;16.65;;
75593;SDS011;64176;49.156;7.810;2022-11-21T18:24:35;40.20;;;24.73;;
75593;SDS011;64176;49.156;7.810;2022-11-21T18:27:21;31.13;;;18.67;;
75593;SDS011;64176;49.156;7.810;2022-11-21T18:30:07;40.60;;;25.40;;
75593;SDS011;64176;49.156;7.810;2022-11-21T18:32:53;41.22;;;21.13;;
75593;SDS011;64176;49.156;7.810;2022-11-21T18:35:37;55.42;;;22.33;;
75593;SDS011;64176;49.156;7.810;2022-11-21T18:38:24;32.33;;;19.35;;
75593;SDS011;64176;49.156;7.810;2022-11-21T18:43:57;32.03;;;18.40;;
75593;SDS011;64176;49.156;7.810;2022-11-21T18:46:46;22.17;;;11.85;;
75593;SDS011;64176;49.156;7.810;2022-11-21T18:49:30;16.33;;;9.48;;
75593;SDS011;64176;49.156;7.810;2022-11-21T18:52:15;24.42;;;14.52;;
75593;SDS011;64176;49.156;7.810;2022-11-21T18:54:59;24.63;;;17.50;;
75593;SDS011;64176;49.156;7.810;2022-11-21T18:57:43;24.50;;;16.85;;